createdAt,value
2019-04-07T00:00:17.989Z,28.3
2019-04-07T00:01:07.399Z,28.2
2019-04-07T00:01:55.260Z,28.1
2019-04-07T00:02:45.246Z,28
2019-04-07T00:03:37.281Z,27.9
2019-04-07T00:05:29.440Z,27.7
2019-04-07T00:06:05.297Z,27.6
2019-04-07T00:06:57.493Z,27.6
2019-04-07T00:07:48.250Z,27.4
2019-04-07T00:08:38.581Z,27.4
2019-04-07T00:09:26.368Z,27.3
2019-04-07T00:10:15.491Z,27.2
2019-04-07T00:11:06.223Z,27.1
2019-04-07T00:11:57.693Z,27.1
2019-04-07T00:12:44.480Z,27
2019-04-07T00:13:35.150Z,26.9
2019-04-07T00:14:23.812Z,26.9
2019-04-07T00:15:18.300Z,26.8
2019-04-07T00:16:07.013Z,26.7
2019-04-07T00:16:55.828Z,26.6
2019-04-07T00:17:46.092Z,26.6
2019-04-07T00:18:35.736Z,26.5
2019-04-07T00:19:26.222Z,26.4
2019-04-07T00:20:17.087Z,26.3
2019-04-07T00:21:08.162Z,26.3
2019-04-07T00:21:56.690Z,26.2
2019-04-07T00:22:45.233Z,26.1
2019-04-07T00:23:36.434Z,26.1
2019-04-07T00:24:25.355Z,25.9
2019-04-07T00:25:14.939Z,25.9
2019-04-07T00:26:07.065Z,25.8
2019-04-07T00:26:55.667Z,25.8
2019-04-07T00:27:45.846Z,25.7
2019-04-07T00:28:34.816Z,25.6
2019-04-07T00:29:26.489Z,25.5
2019-04-07T00:30:16.034Z,25.4
2019-04-07T00:31:06.604Z,25.4
2019-04-07T00:31:55.725Z,25.3
2019-04-07T00:32:45.383Z,25.3
2019-04-07T00:33:37.253Z,25.2
2019-04-07T00:34:29.375Z,25.1
2019-04-07T00:35:39.629Z,25
2019-04-07T00:36:10.524Z,24.9
2019-04-07T00:36:58.086Z,24.9
2019-04-07T00:37:49.175Z,24.8
2019-04-07T00:38:39.382Z,24.8
2019-04-07T00:39:29.303Z,24.5
2019-04-07T00:40:22.286Z,24.2
2019-04-07T00:41:12.070Z,24.4
2019-04-07T00:41:59.938Z,24.9
2019-04-07T00:42:50.131Z,25.3
2019-04-07T00:43:40.571Z,25.7
2019-04-07T00:44:32.679Z,26.1
2019-04-07T00:45:21.515Z,26.6
2019-04-07T00:46:11.310Z,27
2019-04-07T00:47:00.780Z,27.5
2019-04-07T00:47:52.555Z,27.9
2019-04-07T00:48:38.572Z,28.3
2019-04-07T00:49:29.832Z,28.6
2019-04-07T00:50:21.979Z,28.7
2019-04-07T00:51:10.219Z,28.6
2019-04-07T00:52:01.264Z,28.6
2019-04-07T00:52:52.515Z,28.5
2019-04-07T00:53:41.735Z,28.4
2019-04-07T00:54:31.504Z,28.3
2019-04-07T00:55:20.952Z,28.2
2019-04-07T00:56:10.431Z,28.1
2019-04-07T00:56:59.865Z,28
2019-04-07T00:57:50.775Z,27.9
2019-04-07T00:58:41.205Z,27.9
2019-04-07T00:59:31.963Z,27.8
2019-04-07T01:00:24.416Z,27.6
2019-04-07T01:01:12.180Z,27.6
2019-04-07T01:02:02.505Z,27.5
2019-04-07T01:02:52.921Z,27.4
2019-04-07T01:03:42.297Z,27.3
2019-04-07T01:04:32.369Z,27.3
2019-04-07T01:05:20.588Z,27.2
2019-04-07T01:06:10.728Z,27.1
2019-04-07T01:07:01.190Z,27.1
2019-04-07T01:07:51.955Z,26.9
2019-04-07T01:08:42.485Z,26.9
2019-04-07T01:09:33.055Z,26.8
2019-04-07T01:10:23.077Z,26.8
2019-04-07T01:11:10.498Z,26.6
2019-04-07T01:12:01.859Z,26.6
2019-04-07T01:12:52.173Z,26.5
2019-04-07T01:13:43.242Z,26.4
2019-04-07T01:14:30.446Z,26.4
2019-04-07T01:15:20.804Z,26.3
2019-04-07T01:16:10.804Z,26.3
2019-04-07T01:17:01.567Z,26.2
2019-04-07T01:17:51.344Z,26.1
2019-04-07T01:18:43.699Z,26
2019-04-07T01:19:34.394Z,25.9
2019-04-07T01:20:24.255Z,25.8
2019-04-07T01:21:10.441Z,25.8
2019-04-07T01:22:02.307Z,25.7
2019-04-07T01:22:54.198Z,25.6
2019-04-07T01:23:42.455Z,25.6
2019-04-07T01:24:34.319Z,25.5
2019-04-07T01:25:23.465Z,25.4
2019-04-07T01:26:11.209Z,25.3
2019-04-07T01:27:01.244Z,25.3
2019-04-07T01:27:52.393Z,25.2
2019-04-07T01:28:40.661Z,25.1
2019-04-07T01:29:33.213Z,25.1
2019-04-07T01:30:24.243Z,25
2019-04-07T01:31:12.180Z,24.9
2019-04-07T01:32:01.956Z,24.9
2019-04-07T01:32:49.765Z,24.8
2019-04-07T01:33:43.108Z,24.8
2019-04-07T01:34:33.183Z,24.3
2019-04-07T01:35:25.547Z,24.1
2019-04-07T01:36:14.120Z,24.6
2019-04-07T01:37:03.491Z,24.9
2019-04-07T01:37:54.242Z,25.3
2019-04-07T01:38:43.259Z,25.8
2019-04-07T01:39:33.946Z,26.1
2019-04-07T01:40:24.416Z,26.6
2019-04-07T01:41:13.953Z,27.1
2019-04-07T01:42:03.785Z,27.5
2019-04-07T01:42:54.253Z,27.9
2019-04-07T01:43:44.684Z,28.3
2019-04-07T01:44:35.537Z,28.6
2019-04-07T01:45:25.214Z,28.7
2019-04-07T01:46:13.171Z,28.7
2019-04-07T01:47:02.276Z,28.6
2019-04-07T01:47:54.914Z,28.5
2019-04-07T01:48:43.397Z,28.4
2019-04-07T01:49:32.499Z,28.3
2019-04-07T01:50:24.747Z,28.3
2019-04-07T01:51:12.199Z,28.1
2019-04-07T01:52:02.953Z,28.1
2019-04-07T01:52:54.516Z,27.9
2019-04-07T01:53:42.954Z,27.9
2019-04-07T01:54:35.250Z,27.8
2019-04-07T01:55:23.540Z,27.7
2019-04-07T01:56:15.617Z,27.6
2019-04-07T01:57:04.487Z,27.5
2019-04-07T01:57:57.029Z,27.4
2019-04-07T01:58:45.283Z,27.4
2019-04-07T01:59:34.342Z,27.3
2019-04-07T02:00:24.970Z,27.2
2019-04-07T02:01:16.276Z,27.1
2019-04-07T02:02:06.102Z,27.1
2019-04-07T02:02:55.743Z,27
2019-04-07T02:03:47.441Z,26.9
2019-04-07T02:04:35.838Z,26.8
2019-04-07T02:05:26.790Z,26.8
2019-04-07T02:06:16.605Z,26.7
2019-04-07T02:07:06.146Z,26.6
2019-04-07T02:07:56.560Z,26.6
2019-04-07T02:08:46.354Z,26.5
2019-04-07T02:09:39.052Z,26.4
2019-04-07T02:10:27.344Z,26.3
2019-04-07T02:11:17.306Z,26.3
2019-04-07T02:12:07.171Z,26.2
2019-04-07T02:12:58.358Z,26.1
2019-04-07T02:13:47.071Z,26.1
2019-04-07T02:14:35.517Z,25.9
2019-04-07T02:15:29.312Z,25.9
2019-04-07T02:16:16.641Z,25.8
2019-04-07T02:17:08.006Z,25.8
2019-04-07T02:17:57.030Z,25.7
2019-04-07T02:18:48.099Z,25.6
2019-04-07T02:19:38.083Z,25.5
2019-04-07T02:20:28.428Z,25.4
2019-04-07T02:21:18.362Z,25.4
2019-04-07T02:22:07.802Z,25.3
2019-04-07T02:22:57.850Z,25.3
2019-04-07T02:23:47.171Z,25.2
2019-04-07T02:24:39.878Z,25.1
2019-04-07T02:25:28.392Z,25.1
2019-04-07T02:26:18.907Z,24.9
2019-04-07T02:27:06.613Z,24.9
2019-04-07T02:27:58.400Z,24.8
2019-04-07T02:28:46.230Z,24.8
2019-04-07T02:29:40.515Z,24.3
2019-04-07T02:30:29.016Z,24.2
2019-04-07T02:31:19.107Z,24.8
2019-04-07T02:32:11.518Z,25
2019-04-07T02:33:03.275Z,25.4
2019-04-07T02:33:48.673Z,25.8
2019-04-07T02:34:38.510Z,26.2
2019-04-07T02:35:31.860Z,26.6
2019-04-07T02:36:47.348Z,27.1
2019-04-07T02:37:11.913Z,27.7
2019-04-07T02:37:59.067Z,27.9
2019-04-07T02:38:49.871Z,28.2
2019-04-07T02:39:42.736Z,28.6
2019-04-07T02:40:31.369Z,28.6
2019-04-07T02:41:21.646Z,28.6
2019-04-07T02:42:08.748Z,28.6
2019-04-07T02:43:00.859Z,28.5
2019-04-07T02:43:47.520Z,28.4
2019-04-07T02:44:40.959Z,28.3
2019-04-07T02:45:30.680Z,28.2
2019-04-07T02:46:21.309Z,28.1
2019-04-07T02:47:08.396Z,28
2019-04-07T02:47:59.749Z,27.9
2019-04-07T02:49:42.470Z,27.8
2019-04-07T02:50:30.072Z,27.6
2019-04-07T02:51:18.702Z,27.6
2019-04-07T02:52:11.032Z,27.5
2019-04-07T02:53:04.241Z,27.4
2019-04-07T02:53:53.050Z,27.3
2019-04-07T02:54:39.818Z,27.3
2019-04-07T02:55:30.681Z,27.2
2019-04-07T02:56:21.258Z,27.1
2019-04-07T02:57:10.669Z,27
2019-04-07T02:57:59.784Z,26.9
2019-04-07T02:58:50.302Z,26.9
2019-04-07T02:59:48.587Z,26.8
2019-04-07T03:00:32.638Z,26.7
2019-04-07T03:01:21.887Z,26.6
2019-04-07T03:02:12.558Z,26.6
2019-04-07T03:03:02.191Z,26.5
2019-04-07T03:03:52.645Z,26.4
2019-04-07T03:07:36.265Z,26.1
2019-04-07T03:08:26.996Z,26
2019-04-07T03:09:17.231Z,25.9
2019-04-07T03:10:05.146Z,25.9
2019-04-07T03:10:42.209Z,25.8
2019-04-07T03:11:36.058Z,25.8
2019-04-07T03:12:19.675Z,25.7
2019-04-07T03:13:13.478Z,25.6
2019-04-07T03:14:02.303Z,25.6
2019-04-07T03:14:54.333Z,25.4
2019-04-07T03:15:41.915Z,25.4
2019-04-07T03:16:33.340Z,25.3
2019-04-07T03:17:21.870Z,25.3
2019-04-07T03:18:14.694Z,25.2
2019-04-07T03:19:02.871Z,25.1
2019-04-07T03:19:52.124Z,25.1
2019-04-07T03:20:43.905Z,24.9
2019-04-07T03:21:31.764Z,24.9
2019-04-07T03:22:24.282Z,24.8
2019-04-07T03:23:14.651Z,24.8
2019-04-07T03:24:04.424Z,24.4
2019-04-07T03:24:53.045Z,24.1
2019-04-07T03:25:45.175Z,24.4
2019-04-07T03:26:34.659Z,24.8
2019-04-07T03:27:22.619Z,25.2
2019-04-07T03:28:16.850Z,25.5
2019-04-07T03:29:05.300Z,25.9
2019-04-07T03:30:22.874Z,26.3
2019-04-07T03:31:24.901Z,27.1
2019-04-07T03:32:30.033Z,27.6
2019-04-07T03:33:57.091Z,28.1
2019-04-07T03:34:59.972Z,28.6
2019-04-07T03:36:24.166Z,28.6
2019-04-07T03:38:02.312Z,28.5
2019-04-07T03:38:23.231Z,28.4
2019-04-07T03:39:11.307Z,28.4
2019-04-07T03:40:16.166Z,28.3
2019-04-07T03:41:03.856Z,28.1
2019-04-07T03:41:57.024Z,28.1
2019-04-07T03:42:27.499Z,27.9
2019-04-07T03:43:20.399Z,27.9
2019-04-07T03:44:15.313Z,27.8
2019-04-07T03:45:00.580Z,27.7
2019-04-07T03:45:48.429Z,27.6
2019-04-07T03:46:43.394Z,27.5
2019-04-07T03:47:32.053Z,27.4
2019-04-07T03:48:24.513Z,27.4
2019-04-07T03:49:11.266Z,27.3
2019-04-07T03:50:00.386Z,27.2
2019-04-07T03:51:04.207Z,27.1
2019-04-07T03:51:42.264Z,27
2019-04-07T03:52:35.400Z,26.9
2019-04-07T03:53:20.095Z,26.9
2019-04-07T03:54:12.118Z,26.8
2019-04-07T03:55:01.910Z,26.8
2019-04-07T03:56:08.103Z,26.7
2019-04-07T03:56:42.078Z,26.6
2019-04-07T03:57:28.933Z,26.5
2019-04-07T03:58:23.601Z,26.4
2019-04-07T03:59:11.410Z,26.4
2019-04-07T04:00:04.067Z,26.3
2019-04-07T04:00:53.666Z,26.3
2019-04-07T04:01:45.395Z,26.1
2019-04-07T04:02:34.298Z,26.1
2019-04-07T04:03:23.316Z,26
2019-04-07T04:04:11.869Z,25.9
2019-04-07T04:05:02.965Z,25.9
2019-04-07T04:05:58.885Z,25.8
2019-04-07T04:06:43.076Z,25.7
2019-04-07T04:07:53.188Z,25.6
2019-04-07T04:08:21.013Z,25.6
2019-04-07T04:09:11.813Z,25.5
2019-04-07T04:10:03.503Z,25.4
2019-04-07T04:10:53.900Z,25.4
2019-04-07T04:11:43.690Z,25.3
2019-04-07T04:12:32.629Z,25.2
2019-04-07T04:13:24.355Z,25.1
2019-04-07T04:14:13.269Z,25.1
2019-04-07T04:15:06.663Z,25
2019-04-07T04:15:53.727Z,24.9
2019-04-07T04:16:42.334Z,24.9
2019-04-07T04:17:35.211Z,24.8
2019-04-07T04:18:23.970Z,24.4
2019-04-07T04:19:16.722Z,24.1
2019-04-07T04:20:01.585Z,24.3
2019-04-07T04:20:51.727Z,24.8
2019-04-07T04:21:46.054Z,25.1
2019-04-07T04:22:35.901Z,25.4
2019-04-07T04:23:26.081Z,25.8
2019-04-07T04:24:15.631Z,26.2
2019-04-07T04:25:06.003Z,26.6
2019-04-07T04:25:56.222Z,27
2019-04-07T04:26:44.011Z,27.6
2019-04-07T04:28:24.773Z,28.1
2019-04-07T04:29:15.653Z,28.4
2019-04-07T04:30:12.039Z,28.6
2019-04-07T04:30:57.859Z,28.6
2019-04-07T04:31:44.434Z,28.6
2019-04-07T04:32:34.799Z,28.4
2019-04-07T04:33:21.929Z,28.4
2019-04-07T04:34:15.659Z,28.3
2019-04-07T04:35:06.547Z,28.2
2019-04-07T04:35:54.801Z,28.1
2019-04-07T04:37:02.232Z,28
2019-04-07T04:38:08.488Z,27.9
2019-04-07T04:38:26.109Z,27.8
2019-04-07T04:39:25.419Z,27.7
2019-04-07T04:40:07.824Z,27.6
2019-04-07T04:40:55.776Z,27.5
2019-04-07T04:41:48.983Z,27.4
2019-04-07T04:42:39.618Z,27.4
2019-04-07T04:43:26.216Z,27.3
2019-04-07T04:44:16.399Z,27.2
2019-04-07T04:45:10.317Z,27.1
2019-04-07T04:45:58.308Z,27.1
2019-04-07T04:46:48.620Z,26.9
2019-04-07T04:47:35.475Z,26.9
2019-04-07T04:48:26.433Z,26.8
2019-04-07T04:49:17.508Z,26.8
2019-04-07T04:50:09.545Z,26.7
2019-04-07T04:50:56.002Z,26.6
2019-04-07T04:51:54.009Z,26.5
2019-04-07T04:52:33.755Z,26.4
2019-04-07T04:53:24.735Z,26.4
2019-04-07T04:54:17.187Z,26.3
2019-04-07T04:55:05.204Z,26.2
2019-04-07T04:55:56.138Z,26.1
2019-04-07T04:56:47.388Z,26.1
2019-04-07T06:05:25.988Z,24.8
2019-04-07T06:06:13.820Z,24.6
2019-04-07T06:07:10.961Z,24.1
2019-04-07T06:07:53.212Z,24.3
2019-04-07T06:09:00.785Z,24.7
2019-04-07T06:09:41.435Z,25.1
2019-04-07T06:10:31.592Z,25.4
2019-04-07T06:11:17.503Z,25.8
2019-04-07T06:12:07.897Z,26.3
2019-04-07T06:12:59.340Z,26.7
2019-04-07T06:13:50.342Z,27.1
2019-04-07T06:14:32.354Z,27.6
2019-04-07T06:15:29.069Z,27.9
2019-04-07T06:16:11.611Z,28.3
2019-04-07T06:17:07.835Z,28.6
2019-04-07T06:18:02.483Z,28.7
2019-04-07T06:18:48.265Z,28.7
2019-04-07T06:19:29.316Z,28.6
2019-04-07T06:20:27.946Z,28.6
2019-04-07T06:21:18.347Z,28.4
2019-04-07T06:22:00.309Z,28.3
2019-04-07T06:23:02.758Z,28.3
2019-04-07T06:23:45.356Z,28.2
2019-04-07T06:24:43.778Z,28.1
2019-04-07T06:25:24.973Z,27.9
2019-04-07T06:27:03.332Z,27.8
2019-04-07T06:27:59.874Z,27.7
2019-04-07T06:28:42.462Z,27.6
2019-04-07T06:29:38.948Z,27.4
2019-04-07T06:30:24.058Z,27.4
2019-04-07T06:31:16.169Z,27.3
2019-04-07T06:32:14.323Z,27.3
2019-04-07T06:32:56.957Z,27.2
2019-04-07T06:33:49.905Z,27.1
2019-04-07T06:34:33.729Z,27
2019-04-07T06:35:28.346Z,26.9
2019-04-07T06:36:21.185Z,26.9
2019-04-07T06:37:10.909Z,26.8
2019-04-07T06:37:54.085Z,26.7
2019-04-07T06:39:05.652Z,26.6
2019-04-07T06:39:38.951Z,26.5
2019-04-07T06:40:30.560Z,26.5
2019-04-07T06:41:17.293Z,26.4
2019-04-07T06:42:09.041Z,26.3
2019-04-07T06:42:58.121Z,26.3
2019-04-07T06:43:48.435Z,26.1
2019-04-07T06:44:36.791Z,26.1
2019-04-07T06:45:29.354Z,26
2019-04-07T06:46:14.399Z,25.9
2019-04-07T06:47:10.649Z,25.9
2019-04-07T06:47:51.845Z,25.8
2019-04-07T06:48:50.317Z,25.8
2019-04-07T06:49:42.623Z,25.6
2019-04-07T06:50:29.504Z,25.5
2019-04-07T06:51:16.120Z,25.5
2019-04-07T06:52:14.685Z,25.4
2019-04-07T06:52:55.168Z,25.4
2019-04-07T06:53:48.975Z,25.3
2019-04-07T06:54:37.701Z,25.2
2019-04-07T06:55:35.226Z,25.1
2019-04-07T06:56:18.793Z,25
2019-04-07T06:57:12.204Z,25
2019-04-07T06:57:55.291Z,24.9
2019-04-07T06:58:54.610Z,24.9
2019-04-07T06:59:34.485Z,24.8
2019-04-07T07:00:31.649Z,24.8
2019-04-07T07:01:17.577Z,24.6
2019-04-07T07:02:10.623Z,24.6
2019-04-07T07:02:58.851Z,24.5
2019-04-07T07:05:38.776Z,24.3
2019-04-07T07:06:20.172Z,24.2
2019-04-07T07:07:25.051Z,24.2
2019-04-07T07:08:04.141Z,24.1
2019-04-07T07:09:08.797Z,24.1
2019-04-07T07:09:44.796Z,23.9
2019-04-07T07:10:57.340Z,23.9
2019-04-07T07:11:51.133Z,23.8
2019-04-07T07:12:41.177Z,23.7
2019-04-07T07:13:44.677Z,23.6
2019-04-07T07:14:04.188Z,23.6
2019-04-07T07:15:07.888Z,23.6
2019-04-07T07:15:50.670Z,23.3
2019-04-07T07:16:33.909Z,23.3
2019-04-07T07:17:30.114Z,23.8
2019-04-07T07:18:32.770Z,24.8
2019-04-07T07:19:12.922Z,25.6
2019-04-07T07:20:13.368Z,25.8
2019-04-07T07:20:47.311Z,26.1
2019-04-07T07:21:45.013Z,26.3
2019-04-07T07:22:31.631Z,26.8
2019-04-07T07:23:28.574Z,27
2019-04-07T07:24:05.898Z,27
2019-04-07T07:25:18.368Z,27
2019-04-07T07:25:49.869Z,26.9
2019-04-07T07:26:44.124Z,26.8
2019-04-07T07:27:26.268Z,26.8
2019-04-07T07:28:21.085Z,26.7
2019-04-07T07:29:27.552Z,26.6
2019-04-07T07:30:05.555Z,26.4
2019-04-07T07:30:43.718Z,26.4
2019-04-07T07:32:08.209Z,26.3
2019-04-07T07:32:26.865Z,26.2
2019-04-07T07:33:43.621Z,26.1
2019-04-07T07:34:05.522Z,26
2019-04-07T07:34:56.468Z,26
2019-04-07T07:35:50.775Z,25.9
2019-04-07T07:36:58.603Z,25.8
2019-04-07T07:37:32.183Z,25.7
2019-04-07T10:06:23.319Z,22.5
2019-04-07T10:07:15.070Z,22.4
2019-04-07T10:08:04.360Z,22.4
2019-04-07T10:08:52.173Z,22.3
2019-04-07T10:09:41.118Z,22.3
2019-04-07T10:10:33.929Z,22.3
2019-04-07T10:11:22.017Z,22.2
2019-04-07T10:12:10.711Z,22.1
2019-04-07T10:13:03.122Z,22.1
2019-04-07T10:13:53.066Z,22.1
2019-04-07T10:14:42.801Z,22
2019-04-07T10:15:30.098Z,21.9
2019-04-07T10:16:25.805Z,21.9
2019-04-07T10:17:12.353Z,21.9
2019-04-07T10:18:01.767Z,21.8
2019-04-07T10:18:49.164Z,21.8
2019-04-07T10:19:41.551Z,21.8
2019-04-07T10:20:37.398Z,21.7
2019-04-07T10:21:21.673Z,21.6
2019-04-07T10:22:15.676Z,21.6
2019-04-07T10:23:02.990Z,21.6
2019-04-07T10:23:55.086Z,21.5
2019-04-07T10:24:42.722Z,21.4
2019-04-07T10:25:36.635Z,21.4
2019-04-07T10:26:21.985Z,21.4
2019-04-07T10:27:13.020Z,21.3
2019-04-07T10:28:01.598Z,21.3
2019-04-07T10:29:00.833Z,21.3
2019-04-07T10:29:41.730Z,21.2
2019-04-07T10:30:33.099Z,21.2
2019-04-07T10:32:14.633Z,21.1
2019-04-07T10:33:04.562Z,21.1
2019-04-07T10:33:54.390Z,21.1
2019-04-07T10:34:41.792Z,21
2019-04-07T10:35:32.736Z,20.9
2019-04-07T10:36:23.810Z,20.9
2019-04-07T10:37:19.323Z,20.9
2019-04-07T10:38:07.503Z,20.8
2019-04-07T10:38:54.186Z,20.8
2019-04-07T10:39:43.796Z,20.8
2019-04-07T10:40:37.877Z,20.8
2019-04-07T10:41:25.012Z,20.7
2019-04-07T10:42:15.551Z,20.6
2019-04-07T10:43:08.465Z,20.6
2019-04-07T10:43:54.611Z,20.6
2019-04-07T10:44:44.349Z,20.5
2019-04-07T10:45:31.626Z,20.5
2019-04-07T10:46:25.877Z,20.5
2019-04-07T10:47:14.027Z,20.4
2019-04-07T10:48:05.822Z,20.4
2019-04-07T10:48:56.294Z,20.4
2019-04-07T10:49:58.392Z,20.3
2019-04-07T10:50:38.419Z,20.3
2019-04-07T10:51:25.296Z,20.3
2019-04-07T10:52:14.698Z,20.3
2019-04-07T10:53:06.362Z,20.2
2019-04-07T10:53:56.121Z,20.2
2019-04-07T10:54:45.321Z,20.1
2019-04-07T10:55:35.356Z,20.1
2019-04-07T10:56:24.212Z,20.1
2019-04-07T10:57:15.589Z,20.1
2019-04-07T10:58:07.257Z,20.1
2019-04-07T10:58:57.153Z,20
2019-04-07T10:59:43.013Z,19.9
2019-04-07T11:00:34.389Z,19.9
2019-04-07T11:01:26.677Z,19.9
2019-04-07T11:02:16.854Z,19.9
2019-04-07T11:03:13.671Z,19.9
2019-04-07T11:03:57.847Z,19.8
2019-04-07T11:04:45.038Z,19.8
2019-04-07T11:05:35.531Z,19.8
2019-04-07T11:06:30.534Z,19.8
2019-04-07T11:07:20.406Z,19.8
2019-04-07T11:08:07.158Z,19.7
2019-04-07T11:08:56.502Z,19.7
2019-04-07T11:09:45.990Z,19.6
2019-04-07T11:10:54.320Z,19.6
2019-04-07T11:11:27.680Z,19.6
2019-04-07T11:12:16.171Z,19.6
2019-04-07T11:13:08.919Z,19.5
2019-04-07T11:13:56.360Z,19.5
2019-04-07T11:14:47.598Z,19.5
2019-04-07T11:15:36.176Z,19.4
2019-04-07T11:16:24.611Z,19.4
2019-04-07T11:17:18.095Z,19.4
2019-04-07T11:18:07.604Z,19.4
2019-04-07T11:18:58.529Z,19.4
2019-04-07T11:19:50.064Z,19.3
2019-04-07T11:20:36.066Z,19.3
2019-04-07T11:21:28.207Z,19.3
2019-04-07T11:22:16.797Z,19.3
2019-04-07T11:23:07.345Z,19.3
2019-04-07T11:23:56.142Z,19.3
2019-04-07T11:24:48.781Z,19.2
2019-04-07T11:25:38.273Z,19.2
2019-04-07T11:26:27.965Z,19.2
2019-04-07T11:27:19.039Z,19.1
2019-04-07T11:28:09.350Z,19.1
2019-04-07T11:28:57.780Z,19.1
2019-04-07T11:29:53.924Z,19.1
2019-04-07T11:30:37.457Z,19.1
2019-04-07T11:31:29.244Z,19.1
2019-04-07T11:32:16.438Z,19
2019-04-07T11:33:08.108Z,19
2019-04-07T11:33:57.200Z,18.9
2019-04-07T11:34:44.096Z,18.9
2019-04-07T11:35:44.371Z,18.9
2019-04-07T11:36:35.291Z,18.9
2019-04-07T11:37:23.277Z,18.9
2019-04-07T11:38:09.172Z,18.9
2019-04-07T11:38:59.070Z,18.9
2019-04-07T11:39:48.173Z,18.8
2019-04-07T11:40:58.278Z,18.8
2019-04-07T11:41:37.288Z,18.8
2019-04-07T11:42:21.239Z,18.8
2019-04-07T11:43:09.287Z,18.8
2019-04-07T11:43:56.412Z,18.8
2019-04-07T11:44:47.033Z,18.8
2019-04-07T11:48:10.570Z,18.6
2019-04-07T11:49:00.171Z,18.6
2019-04-07T11:49:57.026Z,18.6
2019-04-07T11:50:39.593Z,18.6
2019-04-07T11:51:31.410Z,18.6
2019-04-07T11:52:19.777Z,18.6
2019-04-07T11:53:11.061Z,18.6
2019-04-07T11:53:57.607Z,18.6
2019-04-07T11:54:52.106Z,18.5
2019-04-07T11:55:43.147Z,18.5
2019-04-07T11:56:30.699Z,18.5
2019-04-07T11:57:20.347Z,18.4
2019-04-07T11:58:49.799Z,18.4
2019-04-07T11:59:10.915Z,18.4
2019-04-07T11:59:58.116Z,18.4
2019-04-07T12:00:55.395Z,18.4
2019-04-07T12:01:39.439Z,18.4
2019-04-07T12:02:34.918Z,18.4
2019-04-07T12:03:24.646Z,18.3
2019-04-07T12:06:34.228Z,18.3
2019-04-07T12:07:12.691Z,18.3
2019-04-07T12:08:12.528Z,18.3
2019-04-07T12:08:54.580Z,18.3
2019-04-07T12:09:42.406Z,18.3
2019-04-07T12:10:31.163Z,18.2
2019-04-07T12:11:25.598Z,18.2
2019-04-07T12:12:14.177Z,18.2
2019-04-07T12:13:02.278Z,18.2
2019-04-07T12:13:58.611Z,18.2
2019-04-07T12:14:42.999Z,18.1
2019-04-07T12:15:44.068Z,18.1
2019-04-07T12:16:24.651Z,18.1
2019-04-07T12:17:26.122Z,18.1
2019-04-07T12:18:02.455Z,18.1
2019-04-07T12:19:00.145Z,18.1
2019-04-07T12:19:44.269Z,18.1
2019-04-07T12:20:43.983Z,18.1
2019-04-07T12:21:45.015Z,18
2019-04-07T12:22:22.754Z,18
2019-04-07T12:23:05.851Z,18
2019-04-07T12:24:01.595Z,17.9
2019-04-07T12:25:07.688Z,17.9
2019-04-07T12:25:41.552Z,17.9
2019-04-07T12:26:23.821Z,17.9
2019-04-07T12:27:27.019Z,17.9
2019-04-07T12:28:03.912Z,17.9
2019-04-07T12:29:00.371Z,17.9
2019-04-07T12:29:41.535Z,17.9
2019-04-07T12:30:36.913Z,17.9
2019-04-07T12:31:23.864Z,17.9
2019-04-07T12:32:12.645Z,17.8
2019-04-07T12:33:09.796Z,17.8
2019-04-07T12:33:55.404Z,17.8
2019-04-07T12:34:51.443Z,17.8
2019-04-07T12:35:39.243Z,17.8
2019-04-07T12:36:35.939Z,17.8
2019-04-07T12:37:23.762Z,17.8
2019-04-07T12:38:15.226Z,17.8
2019-04-07T12:38:59.261Z,17.8
2019-04-07T12:39:55.493Z,17.8
2019-04-07T12:40:40.406Z,17.7
2019-04-07T12:41:44.731Z,17.7
2019-04-07T12:42:23.393Z,17.7
2019-04-07T12:43:19.185Z,17.7
2019-04-07T12:44:05.989Z,17.7
2019-04-07T12:44:45.231Z,17.6
2019-04-07T12:45:39.453Z,17.6
2019-04-07T12:46:25.115Z,17.6
2019-04-07T12:47:15.555Z,17.6
2019-04-07T12:48:06.472Z,17.6
2019-04-07T12:48:55.388Z,17.6
2019-04-07T12:49:58.381Z,17.6
2019-04-07T12:50:33.798Z,17.6
2019-04-07T12:51:29.595Z,17.6
2019-04-07T12:52:15.140Z,17.6
2019-04-07T12:53:27.611Z,17.6
2019-04-07T12:54:00.175Z,17.6
2019-04-07T12:54:53.608Z,17.5
2019-04-07T12:55:37.218Z,17.5
2019-04-07T12:56:33.936Z,17.5
2019-04-07T12:57:21.950Z,17.5
2019-04-07T12:58:13.531Z,17.5
2019-04-07T12:59:04.387Z,17.5
2019-04-07T12:59:53.958Z,17.5
2019-04-07T13:01:27.038Z,17.4
2019-04-07T13:01:55.142Z,17.4
2019-04-07T13:02:36.347Z,17.4
2019-04-07T13:03:26.379Z,17.4
2019-04-07T13:04:32.822Z,17.4
2019-04-07T13:05:14.706Z,17.4
2019-04-07T13:05:55.014Z,17.4
2019-04-07T13:06:54.498Z,17.4
2019-04-07T13:07:40.361Z,17.4
2019-04-07T13:08:34.893Z,17.4
2019-04-07T13:09:16.087Z,17.4
2019-04-07T13:10:14.285Z,17.4
2019-04-07T13:10:56.794Z,17.4
2019-04-07T13:12:07.647Z,17.4
2019-04-07T13:12:42.164Z,17.4
2019-04-07T13:13:37.419Z,17.3
2019-04-07T13:14:29.032Z,17.3
2019-04-07T13:15:05.455Z,17.3
2019-04-07T13:16:05.530Z,17.3
2019-04-07T13:16:46.421Z,17.3
2019-04-07T13:17:44.959Z,17.3
2019-04-07T13:18:27.481Z,17.3
2019-04-07T13:19:28.564Z,17.3
2019-04-07T13:20:09.247Z,17.3
2019-04-07T13:21:02.203Z,17.3
2019-04-07T13:21:50.051Z,17.3
2019-04-07T13:22:42.905Z,17.3
2019-04-07T13:23:26.573Z,17.3
2019-04-07T13:25:05.869Z,17.3
2019-04-07T13:25:32.915Z,17.3
2019-04-07T13:26:15.353Z,17.2
2019-04-07T13:27:11.275Z,17.2
2019-04-07T13:27:55.265Z,17.2
2019-04-07T13:28:45.100Z,17.2
2019-04-07T13:29:33.996Z,17.2
2019-04-07T13:30:24.086Z,17.2
2019-04-07T13:31:13.495Z,17.2
2019-04-07T13:32:09.368Z,17.2
2019-04-07T13:33:12.828Z,17.2
2019-04-07T13:33:45.715Z,17.1
2019-04-07T13:34:43.888Z,17.1
2019-04-07T13:35:17.233Z,17.2
2019-04-07T13:36:14.684Z,17.1
2019-04-07T13:37:09.136Z,17.1
2019-04-07T13:37:57.583Z,17.1
2019-04-07T13:38:45.817Z,17.1
2019-04-07T13:39:44.945Z,17.1
2019-04-07T13:40:28.251Z,17.1
2019-04-07T13:41:20.222Z,17.1
2019-04-07T13:42:11.385Z,17.1
2019-04-07T13:43:07.867Z,17.1
2019-04-07T13:43:50.372Z,17.1
2019-04-07T13:44:40.646Z,17.1
2019-04-07T13:45:30.119Z,17.1
2019-04-07T13:46:45.685Z,17.1
2019-04-07T13:47:11.247Z,17.1
2019-04-07T13:47:59.339Z,17.1
2019-04-07T13:48:44.232Z,17.1
2019-04-07T13:49:45.808Z,17.1
2019-04-07T13:50:29.871Z,17.1
2019-04-07T13:51:15.386Z,17.1
2019-04-07T14:00:31.682Z,16.9
2019-04-07T14:02:55.002Z,16.9
2019-04-07T14:03:46.943Z,16.9
2019-04-07T14:04:51.288Z,16.9
2019-04-07T14:07:28.406Z,16.9
2019-04-07T14:08:12.357Z,16.9
2019-04-07T14:09:06.735Z,16.9
2019-04-07T14:09:51.788Z,16.9
2019-04-07T14:10:49.267Z,16.9
2019-04-07T14:11:31.839Z,16.9
2019-04-07T14:12:33.365Z,16.9
2019-04-07T14:13:20.797Z,16.9
2019-04-07T14:14:02.325Z,16.9
2019-04-07T14:14:52.624Z,16.9
2019-04-07T16:07:29.515Z,16.4
2019-04-07T16:08:15.978Z,16.4
2019-04-07T16:10:01.765Z,16.4
2019-04-07T16:10:26.082Z,16.4
2019-04-07T16:11:13.139Z,16.4
2019-04-07T16:12:11.463Z,16.4
2019-04-07T16:13:13.850Z,16.4
2019-04-07T16:13:42.210Z,16.4
2019-04-07T16:14:32.349Z,16.4
2019-04-07T16:15:27.799Z,16.4
2019-04-07T16:16:10.515Z,16.4
2019-04-07T16:17:17.470Z,16.4
2019-04-07T16:17:57.719Z,16.4
2019-04-07T16:18:50.579Z,16.4
2019-04-07T16:20:22.824Z,16.4
2019-04-07T16:20:57.973Z,16.4
2019-04-07T16:21:52.888Z,16.4
2019-04-07T16:22:37.476Z,16.4
2019-04-07T16:23:34.181Z,16.4
2019-04-07T16:24:16.722Z,16.4
2019-04-07T16:25:11.185Z,16.4
2019-04-07T16:26:04.340Z,16.4
2019-04-07T16:26:52.645Z,16.4
2019-04-07T16:27:47.428Z,16.4
2019-04-07T16:28:30.767Z,16.4
2019-04-07T16:29:25.545Z,16.4
2019-04-07T16:30:08.554Z,16.4
2019-04-07T16:31:02.980Z,16.4
2019-04-07T16:31:45.414Z,16.4
2019-04-07T16:32:41.881Z,16.4
2019-04-07T16:33:28.190Z,16.4
2019-04-07T16:34:24.323Z,16.4
2019-04-07T16:35:07.278Z,16.4
2019-04-07T16:36:09.613Z,16.4
2019-04-07T16:36:50.874Z,16.4
2019-04-07T16:37:44.272Z,16.4
2019-04-07T16:38:33.606Z,16.4
2019-04-07T16:39:23.022Z,16.4
2019-04-07T16:40:17.032Z,16.4
2019-04-07T16:40:58.454Z,16.4
2019-04-07T16:41:53.873Z,16.4
2019-04-07T16:42:38.129Z,16.4
2019-04-07T16:43:43.732Z,16.4
2019-04-07T16:44:23.263Z,16.4
2019-04-07T16:45:17.985Z,16.4
2019-04-07T16:46:03.285Z,16.4
2019-04-07T16:46:47.807Z,16.4
2019-04-07T16:47:48.789Z,16.4
2019-04-07T16:48:26.815Z,16.4
2019-04-07T16:49:33.119Z,16.4
2019-04-07T16:50:09.403Z,16.3
2019-04-07T16:51:11.807Z,16.4
2019-04-07T16:51:49.911Z,16.4
2019-04-07T16:52:48.397Z,16.4
2019-04-07T16:53:28.069Z,16.4
2019-04-07T16:54:25.528Z,16.3
2019-04-07T16:55:18.689Z,16.4
2019-04-07T16:56:09.186Z,16.3
2019-04-07T16:56:59.039Z,16.4
2019-04-07T16:57:46.781Z,16.3
2019-04-07T16:58:39.729Z,16.3
2019-04-07T16:59:24.251Z,16.3
2019-04-07T17:00:14.354Z,16.3
2019-04-07T17:01:02.013Z,16.4
2019-04-07T17:01:49.665Z,16.4
2019-04-07T17:02:40.254Z,16.3
2019-04-07T17:03:29.436Z,16.3
2019-04-07T17:04:20.113Z,16.3
2019-04-07T17:05:12.551Z,16.3